METAR KEWN 192354Z AUTO 02009KT 5SM RA BR BKN006 OVC009 05/04 A3009 RMK AO2 CIG 005V009 SLP187 P0011 60051 T00500044 10050 20044 56008 
METAR KEWN 192254Z AUTO 02009KT 8SM -RA OVC007 05/04 A3010 RMK AO2 CIG 005V010 PRESRR SLP193 P0008 T00500044 
METAR KEWN 192154Z AUTO 02010KT 3SM RA BR BKN007 OVC013 04/04 A3009 RMK AO2 CIG 005V011 PRESFR SLP190 P0010 T00440039 
METAR KEWN 192054Z AUTO 01008KT 3SM RA BR OVC007 05/04 A3011 RMK AO2 SLP196 P0009 60022 T00500039 55017 
SPECI KEWN 192047Z AUTO 02009KT 3SM -RA BR BKN007 OVC011 05/04 A3011 RMK AO2 P0008 
SPECI KEWN 192033Z AUTO 02008KT 2 1/2SM RA BR BKN007 OVC013 05/04 A3011 RMK AO2 P0006 
SPECI KEWN 192001Z AUTO 01009KT 3SM -RA BR OVC009 04/04 A3010 RMK AO2 P0000 
METAR KEWN 191954Z AUTO 03008KT 2 1/2SM -RA BR BKN009 OVC012 04/04 A3010 RMK AO2 SLP192 P0006 T00440039 
SPECI KEWN 191943Z AUTO 02009KT 3SM -RA BR BKN009 OVC014 04/04 A3010 RMK AO2 P0004 
SPECI KEWN 191935Z AUTO 03008KT 4SM -RA BR SCT007 BKN012 OVC043 04/04 A3012 RMK AO2 P0003 
SPECI KEWN 191919Z AUTO 03008KT 5SM -RA BR BKN008 BKN013 OVC033 04/03 A3012 RMK AO2 P0002 
SPECI KEWN 191915Z AUTO 03009KT 5SM -RA BR BKN011 BKN033 OVC070 04/03 A3012 RMK AO2 P0001 
SPECI KEWN 191904Z AUTO 04009KT 5SM -RA BR SCT011 OVC029 04/03 A3012 RMK AO2 P0001 
METAR KEWN 191854Z AUTO 04010KT 5SM -RA BR SCT011 OVC031 04/03 A3012 RMK AO2 SLP199 P0007 T00440028 
SPECI KEWN 191844Z AUTO 03011KT 5SM -RA BR SCT011 SCT016 OVC026 04/03 A3013 RMK AO2 PRESFR P0007 
SPECI KEWN 191833Z AUTO 03008KT 3SM RA BR BKN011 BKN016 OVC044 04/03 A3015 RMK AO2 PRESFR P0006 
METAR KEWN 191754Z AUTO 03011KT 4SM RA BR SCT011 OVC033 04/03 A3016 RMK AO2 SLP213 P0006 60018 T00440033 10061 20044 58014 
SPECI KEWN 191738Z AUTO 02011KT 3SM -RA BR BKN011 OVC029 04/03 A3017 RMK AO2 P0005 
SPECI KEWN 191723Z AUTO 02010KT 3SM -RA BR SCT013 BKN033 OVC043 04/03 A3017 RMK AO2 P0003 
METAR KEWN 191654Z AUTO 01010KT 2SM RA BR FEW011 OVC041 05/04 A3020 RMK AO2 SLP225 P0006 T00500039 
METAR KEWN 191554Z AUTO 04009KT 4SM -RA BR BKN032 OVC044 06/04 A3019 RMK AO2 SLP221 P0003 T00560039 
METAR KEWN 191454Z AUTO 03009KT 7SM -RA OVC044 06/03 A3020 RMK AO2 SLP227 P0001 60003 T00560028 51010 
METAR KEWN 191354Z AUTO 02008KT 8SM -RA OVC044 06/02 A3018 RMK AO2 SLP220 P0001 T00560022 
METAR KEWN 191254Z AUTO 34004KT 6SM -RA BR OVC040 06/04 A3020 RMK AO2 RAB03 SLP227 P0001 T00560039 
METAR KEWN 191154Z AUTO 00000KT 8SM OVC043 06/03 A3017 RMK AO2 RAE06B23E43 SLP217 P0000 60004 70004 T00560033 10067 20050 58002 
METAR KEWN 191054Z AUTO 00000KT 9SM -RA OVC045 05/03 A3019 RMK AO2 SLP221 P0001 T00500033 
METAR KEWN 190954Z AUTO 33005KT 8SM -RA OVC050 05/03 A3019 RMK AO2 SLP223 P0002 T00500028 
METAR KEWN 190854Z AUTO VRB03KT 10SM -RA FEW055 OVC070 06/02 A3018 RMK AO2 SLP218 P0000 60001 T00560022 58003 
METAR KEWN 190754Z AUTO 33007KT 10SM -RA BKN070 OVC090 06/02 A3018 RMK AO2 SLP219 P0000 T00560022 
METAR KEWN 190654Z AUTO 31005KT 10SM -RA FEW070 OVC095 06/02 A3019 RMK AO2 RAB0555E26B52 SLP221 P0001 T00610022 
METAR KEWN 190554Z AUTO 31006KT 10SM SCT080 BKN100 07/04 A3019 RMK AO2 RAB31E42 SLP222 P0000 60000 T00670044 10083 20061 55007 
METAR KEWN 190454Z AUTO 00000KT 10SM FEW110 06/04 A3016 RMK AO2 RAB0359E38 SLP211 P0000 T00610044 401110017 
METAR KEWN 190354Z AUTO 22005KT 9SM BKN100 06/06 A3020 RMK AO2 RAE54 PRESRR SLP225 P0000 T00610056 
METAR KEWN 190254Z AUTO 30003KT 10SM -RA BKN070 OVC095 07/04 A3021 RMK AO2 SLP229 P0000 60000 T00720039 51012 
METAR KEWN 190154Z AUTO 00000KT 10SM -RA OVC085 08/02 A3021 RMK AO2 RAB26 SLP229 P0000 T00780022 
METAR KEWN 190054Z AUTO 00000KT 10SM OVC090 08/03 A3021 RMK AO2 SLP229 T00830028 
METAR KEWN 182354Z AUTO 20003KT 10SM SCT100 08/04 A3017 RMK AO2 SLP217 T00780039 10111 20078 56011 
METAR KEWN 182254Z AUTO 00000KT 10SM FEW110 08/04 A3018 RMK AO2 SLP220 T00830039 
METAR KEWN 182154Z AUTO 00000KT 10SM CLR 09/03 A3018 RMK AO2 SLP220 T00890028 
METAR KEWN 182054Z AUTO 29004KT 10SM CLR 11/01 A3020 RMK AO2 SLP228 T01060006 55001 
METAR KEWN 181954Z AUTO VRB03KT 10SM CLR 11/00 A3020 RMK AO2 SLP225 T01060000 
METAR KEWN 181854Z AUTO VRB03KT 10SM CLR 11/01 A3018 RMK AO2 SLP221 T01060011 
METAR KEWN 181754Z AUTO 00000KT 10SM CLR 09/01 A3021 RMK AO2 SLP228 T00940006 10100 20022 58024 
METAR KEWN 181654Z AUTO 00000KT 10SM CLR 08/00 A3024 RMK AO2 SLP238 T00830000 
METAR KEWN 181554Z AUTO VRB04KT 10SM CLR 08/00 A3026 RMK AO2 SLP247 T00780000 
METAR KEWN 181454Z AUTO 01007KT 10SM CLR 06/M01 A3028 RMK AO2 SLP252 T00611011 50010 
METAR KEWN 181354Z AUTO 03009G16KT 10SM CLR 05/M02 A3028 RMK AO2 SLP255 T00501017 
METAR KEWN 181254Z AUTO 01007KT 10SM CLR 03/M02 A3026 RMK AO2 SLP246 T00331022 
METAR KEWN 181154Z AUTO 34006KT 10SM CLR 02/M02 A3025 RMK AO2 SLP242 70005 T00221022 10067 20017 53021 
METAR KEWN 181054Z AUTO 35006KT 10SM CLR 02/M02 A3020 RMK AO2 SLP227 T00221022 
METAR KEWN 180954Z AUTO 01007KT 10SM CLR 03/M02 A3020 RMK AO2 SLP225 T00331022 
METAR KEWN 180854Z AUTO 01006KT 10SM CLR 04/M02 A3018 RMK AO2 SLP221 T00391017 51022 
METAR KEWN 180754Z AUTO 01009KT 10SM CLR 05/M01 A3018 RMK AO2 SLP219 T00501011 
METAR KEWN 180654Z AUTO 35009KT 10SM CLR 06/01 A3015 RMK AO2 SLP208 T00560006 
METAR KEWN 180554Z AUTO 35008KT 10SM CLR 07/03 A3012 RMK AO2 SLP199 60001 T00670033 10111 20067 53022 
METAR KEWN 180454Z AUTO 33008KT 9SM CLR 08/06 A3009 RMK AO2 SLP187 P0001 T00830056 401280078 
METAR KEWN 180354Z AUTO 30006KT 6SM BR CLR 08/07 A3007 RMK AO2 SLP183 T00780072 
METAR KEWN 180254Z AUTO 30007KT 7SM CLR 09/08 A3005 RMK AO2 SLP177 T00940078 53030 
METAR KEWN 180154Z AUTO 29005KT 7SM CLR 09/08 A3002 RMK AO2 SLP164 T00940083 
METAR KEWN 180054Z AUTO 28008KT 8SM CLR 11/08 A2999 RMK AO2 SLP156 T01060083 
METAR KEWN 172354Z AUTO 28007KT 8SM CLR 11/09 A2997 RMK AO2 SLP147 T01110094 10128 20111 53029 
METAR KEWN 172154Z AUTO 29004KT 8SM CLR 12/09 A2990 RMK AO2 SLP124 T01170094 
METAR KEWN 172054Z AUTO 28006KT 9SM CLR 12/10 A2988 RMK AO2 SLP118 T01220100 53016 
METAR KEWN 171954Z AUTO 29005KT 10SM FEW013 13/10 A2986 RMK AO2 SLP111 T01280100 
SPECI KEWN 171925Z AUTO 28007KT 9SM SCT013 BKN070 13/11 A2985 RMK AO2 
METAR KEWN 171854Z AUTO 28007KT 8SM OVC013 13/11 A2985 RMK AO2 SLP107 T01280106 
SPECI KEWN 171805Z AUTO VRB06KT 10SM BKN013 OVC070 13/11 A2984 RMK AO2 
METAR KEWN 171754Z AUTO 28007KT 240V300 10SM BKN015 OVC070 13/11 A2983 RMK AO2 SLP102 60004 T01280106 10128 20094 58027 
SPECI KEWN 171723Z AUTO 28006KT 10SM BKN010 BKN015 OVC065 12/11 A2985 RMK AO2 CIG 008V012 
METAR KEWN 171654Z AUTO 28009KT 10SM OVC008 12/10 A2987 RMK AO2 CIG 006V012 SLP115 T01170100 
METAR KEWN 171554Z AUTO 26007KT 7SM BKN006 BKN030 OVC035 11/10 A2990 RMK AO2 RAE26 CIG 004V009 SLP124 P0000 T01060100 
SPECI KEWN 171544Z AUTO 27007KT 5SM BR BKN006 BKN030 OVC034 11/10 A2991 RMK AO2 RAE26 CIG 004V009 P0000 
SPECI KEWN 171502Z AUTO 30004KT 5SM -RA BR FEW008 OVC032 10/09 A2991 RMK AO2 P0000 
METAR KEWN 171454Z AUTO 28006KT 5SM -RA BR OVC032 10/09 A2991 RMK AO2 SLP129 P0003 60004 T01000089 50000 
METAR KEWN 171454Z AUTO 28006KT 5SM -RA BR OVC032 10/09 A2991 RMK AO2 SLP129 P0003 60004 T01000089 50000 
SPECI KEWN 171414Z AUTO 25006KT 5SM -RA BR SCT028 OVC034 09/09 A2992 RMK AO2 P0001 
METAR KEWN 171354Z AUTO 23005KT 4SM -RA BR OVC027 09/08 A2992 RMK AO2 RAE1257B16 SLP131 P0000 T00940083 
METAR KEWN 171254Z AUTO 22005KT 10SM -RA OVC023 09/08 A2993 RMK AO2 RAB03 SLP134 P0001 T00940083 
SPECI KEWN 171221Z AUTO 28004KT 9SM -RA BKN023 OVC090 09/08 A2994 RMK AO2 RAB03 P0000 
METAR KEWN 171154Z AUTO 20004KT 10SM SCT023 BKN030 09/08 A2991 RMK AO2 RAE51 SLP129 P0003 60005 70009 T00940078 10111 20094 50010 
SPECI KEWN 171143Z AUTO 22004KT 10SM -RA FEW024 BKN029 OVC050 09/08 A2992 RMK AO2 P0003 
METAR KEWN 171054Z AUTO 00000KT 6SM -RA BR FEW033 SCT044 OVC095 10/08 A2992 RMK AO2 SLP131 P0002 T01000083 
METAR KEWN 170954Z AUTO 00000KT 10SM -RA BKN075 OVC090 11/07 A2990 RMK AO2 SLP124 P0000 T01060072 
METAR KEWN 170854Z AUTO 22003KT 10SM -RA OVC090 11/06 A2989 RMK AO2 RAB29 SLP119 P0000 60000 T01110061 58005 
METAR KEWN 170754Z AUTO 21005KT 10SM OVC110 11/07 A2989 RMK AO2 RAE02 SLP123 P0000 T01110067 
METAR KEWN 170654Z AUTO 21006KT 10SM -RA BKN110 11/08 A2990 RMK AO2 RAB18E28B46 SLP124 P0000 T01060078 
METAR KEWN 170554Z AUTO 24005KT 10SM SCT110 11/08 A2990 RMK AO2 SLP125 60004 T01110083 10133 20111 58034 
METAR KEWN 170454Z AUTO 21006KT 10SM BKN070 BKN110 11/09 A2994 RMK AO2 RAE49 SLP137 P0001 T01110094 401671011 
METAR KEWN 170354Z AUTO 19004KT 10SM -RA BKN075 OVC100 12/10 A2998 RMK AO2 SLP152 P0000 T01170100 
METAR KEWN 170254Z AUTO 23004KT 10SM -RA BKN055 OVC075 12/11 A3000 RMK AO2 SLP159 P0003 60003 T01220106 58004 
METAR KEWN 170154Z AUTO 00000KT 10SM -RA OVC037 12/11 A3001 RMK AO2 RAB18 SLP162 P0000 T01220106 
METAR KEWN 170054Z AUTO 00000KT 10SM BKN041 OVC060 13/09 A3001 RMK AO2 SLP162 T01280094 
METAR KEWN 162354Z AUTO 00000KT 10SM SCT045 OVC095 13/09 A3001 RMK AO2 SLP163 60000 T01280094 10167 20128 58005 
METAR KEWN 162254Z AUTO 18004KT 10SM FEW047 OVC100 14/09 A3003 RMK AO2 RAB41E51 SLP169 P0000 T01390089 
METAR KEWN 162154Z AUTO 18005KT 10SM BKN100 14/08 A3003 RMK AO2 SLP167 T01440078 
METAR KEWN 162054Z AUTO 19008KT 10SM CLR 16/07 A3003 RMK AO2 SLP169 T01610072 56017 
METAR KEWN 161954Z AUTO 20005KT 10SM CLR 16/06 A3004 RMK AO2 SLP173 T01560061 
METAR KEWN 161754Z AUTO 21007KT 10SM CLR 15/04 A3008 RMK AO2 SLP186 T01500039 10156 21011 58029